Rickenbacker International Airport
KLCK : now visible

Airfield :











YOU CAN JOIN US ON...

 
LOGIN :

Register | Disclaimer

   EN    FR    IT 

 









Legend :    VFR   Marginal VFR   IFR   Intensive IFR   Very Intensive IFR
Visi :
Ceiling :
>= 8 km
>= 3000ft
5 to 8 km
1000 to 3000 ft
1500m to 5 km
500 to 1000 ft
800 to 1500m
200 to 500 ft
< 800m
< 200 ft
Symbols :   Thunderstorms  Fog  Heavy snow  Heavy precipitations  Wind > 20 kt







- Airport Elevation : 744 ft


KLCK - Rickenbacker International

CURRENT METAR :
  • 201635Z AUTO 17005KT 10SM CLR 27/18 A3018 RMK AO2 T02700176

EXPIRED METARs :
  • 201615Z AUTO 23005KT 10SM CLR 27/17 A3019 RMK AO2 T02650174
  • 201555Z AUTO 20005KT 10SM CLR 26/17 A3019 RMK AO2 T02570171
  • 201535Z AUTO 19006KT 10SM CLR 25/17 A3020 RMK AO2 T02520170
  • 201515Z AUTO 22008KT 10SM CLR 24/17 A3020 RMK AO2 T02440167
  • 201455Z AUTO 22007KT 10SM CLR 24/17 A3020 RMK AO2 T02370165
  • 201435Z AUTO 21007KT 10SM CLR 23/16 A3020 RMK AO2 T02300163
  • 201415Z AUTO 17005KT 10SM CLR 22/16 A3020 RMK AO2 T02210160

TAF KLCK
Valid from the 20 at 12:00 until the 21 at 12:00 UTC


201132Z 2012/2112 16005KT P6SM SCT090
FM201500 17006KT P6SM BKN060
FM201700 18007KT P6SM BKN050
FM210100 19006KT P6SM BKN100
No reported NOTAMs for that airfield.



MET'MAP, your aeronautical weather chart ! - Copyright ORBIFLY December 2007 - Disclaimer

ORBIFLY MET'MAP TEAM :

Programming & Development : Alexandra Zaïnal
Concept & Development : Baudouin d'Aumeries
Co-Development & Prog : Marc-Olivier Méhu
Technical & hardware support : Manuel Goepfert

Contact : metmap@orbifly.com




SOURCES & CREDITS :

   NOAA       Earth
Advisory